AAY555 KJAX-KVPS
Flight info
| Callsign | AAY555 |
|---|---|
| Flight time | 0h 51m |
| Altitude | 34000 |
| Route | JETIN2 CAPPS SZW CEW |
| Aircraft | A320/M-SDE3FGHIRWY/LB1 |
Departure
| Time | 2026-04-24 22:18 |
|---|---|
| Airport | Jacksonville International Airport (KJAX) |
Arrival
| Time | 2026-04-24 23:09 |
|---|---|
| Airport | Destin-Fort Walton Beach Airport (KVPS) |
| Time | Latitude | Longitude | Altitude | Speed | Heading |
|---|---|---|---|---|---|
| 2026-04-24 21:50 | 30.49080 | -81.68653 | 40 ft | 0 kts | 115° |
| 2026-04-24 22:03 | 30.49081 | -81.68654 | 40 ft | 2 kts | 115° |
| 2026-04-24 22:04 | 30.49088 | -81.68672 | 39 ft | 2 kts | 115° |
| 2026-04-24 22:04 | 30.49095 | -81.68690 | 37 ft | 2 kts | 115° |
| 2026-04-24 22:04 | 30.49103 | -81.68707 | 39 ft | 2 kts | 158° |
| 2026-04-24 22:04 | 30.49115 | -81.68710 | 38 ft | 0 kts | 206° |
| 2026-04-24 22:05 | 30.49114 | -81.68711 | 38 ft | 0 kts | 206° |
| 2026-04-24 22:10 | 30.49110 | -81.68713 | 37 ft | 5 kts | 205° |
| 2026-04-24 22:10 | 30.49055 | -81.68746 | 39 ft | 10 kts | 208° |
| 2026-04-24 22:10 | 30.48991 | -81.68779 | 37 ft | 9 kts | 187° |
| 2026-04-24 22:11 | 30.48936 | -81.68759 | 38 ft | 8 kts | 152° |
| 2026-04-24 22:11 | 30.48881 | -81.68722 | 37 ft | 10 kts | 150° |
| 2026-04-24 22:11 | 30.48816 | -81.68682 | 39 ft | 10 kts | 162° |
| 2026-04-24 22:11 | 30.48726 | -81.68695 | 38 ft | 16 kts | 190° |
| 2026-04-24 22:12 | 30.48609 | -81.68720 | 37 ft | 18 kts | 190° |
| 2026-04-24 22:12 | 30.48493 | -81.68772 | 37 ft | 18 kts | 244° |
| 2026-04-24 22:12 | 30.48542 | -81.68882 | 34 ft | 16 kts | 311° |
| 2026-04-24 22:12 | 30.48614 | -81.68977 | 33 ft | 15 kts | 311° |
| 2026-04-24 22:13 | 30.48680 | -81.69068 | 33 ft | 17 kts | 311° |
| 2026-04-24 22:13 | 30.48764 | -81.69180 | 31 ft | 18 kts | 311° |
| 2026-04-24 22:13 | 30.48841 | -81.69283 | 35 ft | 15 kts | 310° |
| 2026-04-24 22:13 | 30.48904 | -81.69368 | 36 ft | 13 kts | 310° |
| 2026-04-24 22:14 | 30.48975 | -81.69465 | 36 ft | 17 kts | 310° |
| 2026-04-24 22:14 | 30.49046 | -81.69560 | 38 ft | 14 kts | 310° |
| 2026-04-24 22:14 | 30.49103 | -81.69637 | 39 ft | 13 kts | 310° |
| 2026-04-24 22:14 | 30.49164 | -81.69719 | 36 ft | 13 kts | 310° |
| 2026-04-24 22:15 | 30.49223 | -81.69800 | 38 ft | 12 kts | 310° |
| 2026-04-24 22:15 | 30.49289 | -81.69888 | 38 ft | 15 kts | 311° |
| 2026-04-24 22:15 | 30.49375 | -81.69934 | 36 ft | 14 kts | 8° |
| 2026-04-24 22:15 | 30.49469 | -81.69921 | 34 ft | 13 kts | 351° |
| 2026-04-24 22:16 | 30.49530 | -81.69945 | 34 ft | 0 kts | 340° |
| 2026-04-24 22:16 | 30.49542 | -81.69950 | 34 ft | 9 kts | 340° |
| 2026-04-24 22:17 | 30.49603 | -81.69976 | 34 ft | 9 kts | 340° |
| 2026-04-24 22:17 | 30.49638 | -81.69948 | 34 ft | 5 kts | 58° |
| 2026-04-24 22:17 | 30.49650 | -81.69908 | 35 ft | 11 kts | 71° |
| 2026-04-24 22:17 | 30.49761 | -81.69543 | 38 ft | 83 kts | 70° |
| 2026-04-24 22:18 | 30.50022 | -81.68687 | 38 ft | 140 kts | 70° |
| 2026-04-24 22:18 | 30.50403 | -81.67485 | 237 ft | 167 kts | 70° |
| 2026-04-24 22:18 | 30.50823 | -81.66225 | 874 ft | 168 kts | 71° |
| 2026-04-24 22:18 | 30.51231 | -81.64943 | 1551 ft | 169 kts | 73° |
| 2026-04-24 22:19 | 30.51649 | -81.63617 | 2060 ft | 187 kts | 72° |
| 2026-04-24 22:19 | 30.52116 | -81.62100 | 2570 ft | 212 kts | 72° |
| 2026-04-24 22:19 | 30.52643 | -81.60393 | 2954 ft | 240 kts | 71° |
| 2026-04-24 22:19 | 30.53250 | -81.58469 | 3002 ft | 263 kts | 71° |
| 2026-04-24 22:20 | 30.53889 | -81.56461 | 3008 ft | 267 kts | 70° |
| 2026-04-24 22:20 | 30.54536 | -81.54438 | 3034 ft | 267 kts | 71° |
| 2026-04-24 22:20 | 30.55175 | -81.52442 | 3034 ft | 267 kts | 70° |
| 2026-04-24 22:20 | 30.55687 | -81.50384 | 3031 ft | 265 kts | 88° |
| 2026-04-24 22:21 | 30.55380 | -81.48310 | 3121 ft | 265 kts | 118° |
| 2026-04-24 22:21 | 30.54180 | -81.46708 | 3902 ft | 267 kts | 148° |
| 2026-04-24 22:21 | 30.52459 | -81.45893 | 4709 ft | 269 kts | 170° |
| 2026-04-24 22:21 | 30.50608 | -81.45461 | 5508 ft | 273 kts | 173° |
| 2026-04-24 22:22 | 30.48720 | -81.45047 | 6326 ft | 278 kts | 173° |
| 2026-04-24 22:22 | 30.46803 | -81.44643 | 7117 ft | 283 kts | 174° |
| 2026-04-24 22:22 | 30.44842 | -81.44613 | 7909 ft | 283 kts | 194° |
| 2026-04-24 22:22 | 30.43035 | -81.45454 | 8720 ft | 282 kts | 218° |
| 2026-04-24 22:23 | 30.41683 | -81.47064 | 9544 ft | 281 kts | 241° |
| 2026-04-24 22:23 | 30.41011 | -81.49170 | 10275 ft | 280 kts | 264° |
| 2026-04-24 22:23 | 30.40960 | -81.51468 | 10686 ft | 296 kts | 272° |
| 2026-04-24 22:23 | 30.40998 | -81.53947 | 10961 ft | 318 kts | 272° |
| 2026-04-24 22:24 | 30.41048 | -81.56539 | 11535 ft | 326 kts | 272° |
| 2026-04-24 22:24 | 30.41097 | -81.59185 | 12258 ft | 330 kts | 272° |
| 2026-04-24 22:24 | 30.41141 | -81.61850 | 12964 ft | 333 kts | 272° |
| 2026-04-24 22:24 | 30.41182 | -81.64551 | 13661 ft | 337 kts | 272° |
| 2026-04-24 22:25 | 30.41220 | -81.67282 | 14283 ft | 340 kts | 272° |
| 2026-04-24 22:25 | 30.41253 | -81.70039 | 14899 ft | 343 kts | 272° |
| 2026-04-24 22:25 | 30.41289 | -81.72814 | 15505 ft | 347 kts | 273° |
| 2026-04-24 22:25 | 30.41326 | -81.75623 | 16108 ft | 350 kts | 273° |
| 2026-04-24 22:26 | 30.41364 | -81.78451 | 16716 ft | 353 kts | 273° |
| 2026-04-24 22:26 | 30.41403 | -81.81303 | 17303 ft | 356 kts | 273° |
| 2026-04-24 22:26 | 30.41443 | -81.84152 | 17881 ft | 359 kts | 273° |
| 2026-04-24 22:26 | 30.41482 | -81.87097 | 18433 ft | 363 kts | 273° |
| 2026-04-24 22:27 | 30.41518 | -81.90028 | 18932 ft | 366 kts | 273° |
| 2026-04-24 22:27 | 30.41551 | -81.92947 | 19429 ft | 368 kts | 273° |
| 2026-04-24 22:27 | 30.41581 | -81.95924 | 19945 ft | 371 kts | 273° |
| 2026-04-24 22:27 | 30.41611 | -81.98933 | 20466 ft | 374 kts | 273° |
| 2026-04-24 22:28 | 30.41503 | -82.01959 | 20975 ft | 380 kts | 264° |
| 2026-04-24 22:28 | 30.40936 | -82.04963 | 21474 ft | 385 kts | 257° |
| 2026-04-24 22:28 | 30.40224 | -82.07961 | 21988 ft | 388 kts | 257° |
| 2026-04-24 22:28 | 30.39714 | -82.11029 | 22501 ft | 388 kts | 266° |
| 2026-04-24 22:29 | 30.39971 | -82.17285 | 23520 ft | 392 kts | 277° |
| 2026-04-24 22:29 | 30.40251 | -82.20434 | 23931 ft | 394 kts | 277° |
| 2026-04-24 22:29 | 30.40527 | -82.23606 | 24338 ft | 397 kts | 277° |
| 2026-04-24 22:30 | 30.40801 | -82.26797 | 24755 ft | 399 kts | 277° |
| 2026-04-24 22:30 | 30.41075 | -82.30008 | 25149 ft | 401 kts | 277° |
| 2026-04-24 22:30 | 30.41348 | -82.33229 | 25523 ft | 403 kts | 277° |
| 2026-04-24 22:30 | 30.41618 | -82.36473 | 25884 ft | 405 kts | 276° |
| 2026-04-24 22:31 | 30.41888 | -82.39725 | 26244 ft | 407 kts | 276° |
| 2026-04-24 22:31 | 30.42157 | -82.42957 | 26585 ft | 409 kts | 277° |
| 2026-04-24 22:31 | 30.42432 | -82.46240 | 26934 ft | 411 kts | 277° |
| 2026-04-24 22:31 | 30.42709 | -82.49544 | 27285 ft | 413 kts | 277° |
| 2026-04-24 22:32 | 30.42984 | -82.52859 | 27611 ft | 415 kts | 276° |
| 2026-04-24 22:32 | 30.43261 | -82.56196 | 27923 ft | 417 kts | 276° |
| 2026-04-24 22:32 | 30.43541 | -82.59562 | 28254 ft | 419 kts | 276° |
| 2026-04-24 22:32 | 30.43821 | -82.62930 | 28576 ft | 422 kts | 276° |
| 2026-04-24 22:33 | 30.44101 | -82.66328 | 28888 ft | 424 kts | 276° |
| 2026-04-24 22:33 | 30.44406 | -82.69732 | 29187 ft | 426 kts | 277° |
| 2026-04-24 22:33 | 30.44770 | -82.73146 | 29465 ft | 428 kts | 278° |
| 2026-04-24 22:33 | 30.45174 | -82.76575 | 29755 ft | 430 kts | 278° |
| 2026-04-24 22:34 | 30.45588 | -82.79970 | 30048 ft | 431 kts | 279° |
| 2026-04-24 22:34 | 30.46011 | -82.83456 | 30321 ft | 432 kts | 279° |
| 2026-04-24 22:34 | 30.46411 | -82.86869 | 30558 ft | 433 kts | 278° |
| 2026-04-24 22:34 | 30.46806 | -82.90336 | 30807 ft | 434 kts | 278° |
| 2026-04-24 22:35 | 30.47192 | -82.93802 | 31042 ft | 435 kts | 278° |
| 2026-04-24 22:35 | 30.47577 | -82.97284 | 31268 ft | 436 kts | 278° |
| 2026-04-24 22:35 | 30.47963 | -83.00775 | 31486 ft | 436 kts | 278° |
| 2026-04-24 22:35 | 30.48348 | -83.04261 | 31806 ft | 435 kts | 278° |
| 2026-04-24 22:36 | 30.48732 | -83.07739 | 32128 ft | 434 kts | 278° |
| 2026-04-24 22:36 | 30.48986 | -83.10031 | 32334 ft | 433 kts | 278° |
| 2026-04-24 22:36 | 30.49367 | -83.13482 | 32644 ft | 431 kts | 278° |
| 2026-04-24 22:36 | 30.49746 | -83.16926 | 32944 ft | 430 kts | 278° |
| 2026-04-24 22:37 | 30.50124 | -83.20360 | 33313 ft | 427 kts | 279° |
| 2026-04-24 22:37 | 30.50497 | -83.23770 | 33664 ft | 425 kts | 279° |
| 2026-04-24 22:37 | 30.50867 | -83.27167 | 33914 ft | 424 kts | 278° |
| 2026-04-24 22:37 | 30.51231 | -83.30522 | 33955 ft | 416 kts | 279° |
| 2026-04-24 22:38 | 30.51951 | -83.37125 | 33952 ft | 410 kts | 279° |
| 2026-04-24 22:38 | 30.52662 | -83.43650 | 33951 ft | 410 kts | 279° |
| 2026-04-24 22:39 | 30.53364 | -83.50200 | 33950 ft | 409 kts | 278° |
| 2026-04-24 22:39 | 30.53664 | -83.56804 | 33947 ft | 409 kts | 274° |
| 2026-04-24 22:40 | 30.53836 | -83.63397 | 33953 ft | 409 kts | 274° |
| 2026-04-24 22:40 | 30.54010 | -83.69987 | 33956 ft | 408 kts | 274° |
| 2026-04-24 22:41 | 30.54185 | -83.76579 | 33949 ft | 408 kts | 274° |
| 2026-04-24 22:41 | 30.54352 | -83.83159 | 33951 ft | 408 kts | 274° |
| 2026-04-24 22:42 | 30.54514 | -83.89698 | 33948 ft | 408 kts | 274° |
| 2026-04-24 22:42 | 30.54675 | -83.96281 | 33940 ft | 408 kts | 274° |
| 2026-04-24 22:43 | 30.54837 | -84.02858 | 33941 ft | 408 kts | 273° |
| 2026-04-24 22:43 | 30.54989 | -84.09433 | 33939 ft | 407 kts | 273° |
| 2026-04-24 22:44 | 30.55143 | -84.16001 | 33941 ft | 407 kts | 273° |
| 2026-04-24 22:44 | 30.55292 | -84.22537 | 33937 ft | 407 kts | 273° |
| 2026-04-24 22:45 | 30.55443 | -84.29103 | 33917 ft | 407 kts | 273° |
| 2026-04-24 22:45 | 30.55590 | -84.35663 | 33920 ft | 407 kts | 273° |
| 2026-04-24 22:46 | 30.56228 | -84.42182 | 33910 ft | 406 kts | 279° |
| 2026-04-24 22:46 | 30.57048 | -84.48674 | 33915 ft | 407 kts | 279° |
| 2026-04-24 22:47 | 30.57860 | -84.55185 | 33907 ft | 407 kts | 279° |
| 2026-04-24 22:47 | 30.58672 | -84.61697 | 33913 ft | 407 kts | 279° |
| 2026-04-24 22:48 | 30.59480 | -84.68211 | 33898 ft | 407 kts | 279° |
| 2026-04-24 22:48 | 30.60280 | -84.74692 | 33908 ft | 408 kts | 279° |
| 2026-04-24 22:49 | 30.61088 | -84.81217 | 33906 ft | 409 kts | 279° |
| 2026-04-24 22:49 | 30.61889 | -84.87767 | 33708 ft | 410 kts | 279° |
| 2026-04-24 22:50 | 30.62289 | -84.91037 | 33439 ft | 408 kts | 279° |
| 2026-04-24 22:50 | 30.62683 | -84.94291 | 33174 ft | 406 kts | 279° |
| 2026-04-24 22:50 | 30.63073 | -84.97528 | 32915 ft | 404 kts | 279° |
| 2026-04-24 22:50 | 30.63460 | -85.00746 | 32659 ft | 402 kts | 279° |
| 2026-04-24 22:51 | 30.63848 | -85.03965 | 32400 ft | 401 kts | 279° |
| 2026-04-24 22:51 | 30.64237 | -85.07169 | 32131 ft | 401 kts | 279° |
| 2026-04-24 22:51 | 30.64625 | -85.10371 | 31887 ft | 400 kts | 279° |
| 2026-04-24 22:51 | 30.65006 | -85.13519 | 31638 ft | 398 kts | 279° |
| 2026-04-24 22:52 | 30.65389 | -85.16693 | 31392 ft | 396 kts | 279° |
| 2026-04-24 22:52 | 30.65770 | -85.19855 | 31057 ft | 391 kts | 279° |
| 2026-04-24 22:52 | 30.66144 | -85.22964 | 30583 ft | 388 kts | 279° |
| 2026-04-24 22:52 | 30.66515 | -85.26070 | 30110 ft | 386 kts | 279° |
| 2026-04-24 22:53 | 30.66881 | -85.29146 | 29594 ft | 383 kts | 279° |
| 2026-04-24 22:53 | 30.67242 | -85.32194 | 29129 ft | 379 kts | 279° |
| 2026-04-24 22:53 | 30.67599 | -85.35215 | 28678 ft | 375 kts | 279° |
| 2026-04-24 22:53 | 30.67934 | -85.38211 | 28255 ft | 375 kts | 275° |
| 2026-04-24 22:54 | 30.68062 | -85.41226 | 27837 ft | 374 kts | 274° |
| 2026-04-24 22:54 | 30.68145 | -85.44243 | 27387 ft | 372 kts | 273° |
| 2026-04-24 22:54 | 30.68201 | -85.47233 | 26967 ft | 368 kts | 273° |
| 2026-04-24 22:54 | 30.68248 | -85.50214 | 25852 ft | 373 kts | 273° |
| 2026-04-24 22:55 | 30.68297 | -85.53205 | 24747 ft | 378 kts | 273° |
| 2026-04-24 22:55 | 30.68350 | -85.56255 | 23833 ft | 377 kts | 273° |
| 2026-04-24 22:55 | 30.68407 | -85.59290 | 22906 ft | 373 kts | 274° |
| 2026-04-24 22:55 | 30.68467 | -85.62287 | 21987 ft | 369 kts | 274° |
| 2026-04-24 22:56 | 30.68526 | -85.65251 | 21138 ft | 364 kts | 273° |
| 2026-04-24 22:56 | 30.68586 | -85.68176 | 20293 ft | 360 kts | 273° |
| 2026-04-24 22:56 | 30.68648 | -85.71070 | 19492 ft | 356 kts | 273° |
| 2026-04-24 22:56 | 30.68707 | -85.73918 | 18733 ft | 351 kts | 273° |
| 2026-04-24 22:57 | 30.68763 | -85.76743 | 17917 ft | 348 kts | 273° |
| 2026-04-24 22:57 | 30.68815 | -85.79533 | 17049 ft | 344 kts | 273° |
| 2026-04-24 22:57 | 30.68866 | -85.82290 | 16222 ft | 339 kts | 272° |
| 2026-04-24 22:57 | 30.68915 | -85.85021 | 15420 ft | 336 kts | 272° |
| 2026-04-24 22:58 | 30.68964 | -85.87719 | 14641 ft | 332 kts | 272° |
| 2026-04-24 22:58 | 30.69011 | -85.90388 | 13960 ft | 328 kts | 272° |
| 2026-04-24 22:58 | 30.69055 | -85.92924 | 13736 ft | 308 kts | 272° |
| 2026-04-24 22:58 | 30.69100 | -85.95394 | 13205 ft | 299 kts | 272° |
| 2026-04-24 22:59 | 30.69143 | -85.97764 | 12562 ft | 295 kts | 272° |
| 2026-04-24 22:59 | 30.69183 | -86.00130 | 11902 ft | 292 kts | 272° |
| 2026-04-24 22:59 | 30.69263 | -86.04797 | 10642 ft | 286 kts | 272° |
| 2026-04-24 23:00 | 30.69301 | -86.07097 | 10017 ft | 284 kts | 271° |
| 2026-04-24 23:00 | 30.69337 | -86.09388 | 9364 ft | 282 kts | 271° |
| 2026-04-24 23:00 | 30.69375 | -86.11655 | 8649 ft | 280 kts | 271° |
| 2026-04-24 23:00 | 30.69413 | -86.13898 | 8178 ft | 272 kts | 271° |
| 2026-04-24 23:01 | 30.69450 | -86.16071 | 7789 ft | 269 kts | 271° |
| 2026-04-24 23:01 | 30.69483 | -86.18244 | 7401 ft | 269 kts | 271° |
| 2026-04-24 23:01 | 30.69515 | -86.20417 | 7010 ft | 269 kts | 271° |
| 2026-04-24 23:01 | 30.69549 | -86.22592 | 6609 ft | 270 kts | 271° |
| 2026-04-24 23:02 | 30.69584 | -86.24753 | 6191 ft | 271 kts | 271° |
| 2026-04-24 23:02 | 30.69619 | -86.26943 | 5760 ft | 271 kts | 271° |
| 2026-04-24 23:02 | 30.69653 | -86.29129 | 5333 ft | 271 kts | 270° |
| 2026-04-24 23:02 | 30.69686 | -86.31316 | 4905 ft | 271 kts | 270° |
| 2026-04-24 23:03 | 30.69717 | -86.33499 | 4616 ft | 265 kts | 270° |
| 2026-04-24 23:03 | 30.69748 | -86.35577 | 4548 ft | 251 kts | 270° |
| 2026-04-24 23:03 | 30.69778 | -86.37552 | 4453 ft | 238 kts | 270° |
| 2026-04-24 23:03 | 30.69806 | -86.39441 | 4356 ft | 232 kts | 270° |
| 2026-04-24 23:04 | 30.69832 | -86.41303 | 4259 ft | 230 kts | 270° |
| 2026-04-24 23:04 | 30.69856 | -86.43159 | 4155 ft | 229 kts | 270° |
| 2026-04-24 23:04 | 30.69683 | -86.44957 | 4054 ft | 219 kts | 245° |
| 2026-04-24 23:04 | 30.68755 | -86.46257 | 3893 ft | 208 kts | 210° |
| 2026-04-24 23:05 | 30.67370 | -86.46785 | 3416 ft | 215 kts | 193° |
| 2026-04-24 23:05 | 30.65882 | -86.47147 | 2986 ft | 219 kts | 192° |
| 2026-04-24 23:05 | 30.64418 | -86.47507 | 2718 ft | 209 kts | 193° |
| 2026-04-24 23:05 | 30.63038 | -86.47851 | 2485 ft | 194 kts | 193° |
| 2026-04-24 23:06 | 30.61786 | -86.48164 | 2255 ft | 180 kts | 193° |
| 2026-04-24 23:06 | 30.60609 | -86.48459 | 2040 ft | 164 kts | 192° |
| 2026-04-24 23:06 | 30.59561 | -86.48722 | 1844 ft | 147 kts | 192° |
| 2026-04-24 23:06 | 30.58585 | -86.48966 | 1663 ft | 139 kts | 192° |
| 2026-04-24 23:07 | 30.57648 | -86.49202 | 1481 ft | 137 kts | 193° |
| 2026-04-24 23:07 | 30.56735 | -86.49439 | 1364 ft | 135 kts | 193° |
| 2026-04-24 23:07 | 30.55785 | -86.49675 | 1165 ft | 140 kts | 191° |
| 2026-04-24 23:07 | 30.54857 | -86.49907 | 989 ft | 134 kts | 192° |
| 2026-04-24 23:08 | 30.53935 | -86.50122 | 778 ft | 137 kts | 189° |
| 2026-04-24 23:08 | 30.53000 | -86.50355 | 625 ft | 135 kts | 189° |
| 2026-04-24 23:08 | 30.52076 | -86.50598 | 498 ft | 138 kts | 190° |
| 2026-04-24 23:08 | 30.51149 | -86.50825 | 329 ft | 136 kts | 191° |
| 2026-04-24 23:09 | 30.50220 | -86.51059 | 196 ft | 137 kts | 189° |
| 2026-04-24 23:09 | 30.49330 | -86.51281 | 105 ft | 119 kts | 189° |
| 2026-04-24 23:09 | 30.48639 | -86.51444 | 100 ft | 79 kts | 192° |
| 2026-04-24 23:09 | 30.48267 | -86.51535 | 96 ft | 30 kts | 195° |
| 2026-04-24 23:10 | 30.48074 | -86.51589 | 95 ft | 28 kts | 192° |
| 2026-04-24 23:10 | 30.47881 | -86.51637 | 98 ft | 28 kts | 193° |
| 2026-04-24 23:10 | 30.47697 | -86.51683 | 97 ft | 27 kts | 191° |
| 2026-04-24 23:10 | 30.47606 | -86.51825 | 99 ft | 26 kts | 285° |
| 2026-04-24 23:11 | 30.47646 | -86.52041 | 95 ft | 28 kts | 281° |
| 2026-04-24 23:11 | 30.47686 | -86.52266 | 101 ft | 28 kts | 282° |
| 2026-04-24 23:11 | 30.47767 | -86.52474 | 100 ft | 29 kts | 301° |
| 2026-04-24 23:11 | 30.47871 | -86.52684 | 100 ft | 31 kts | 300° |
| 2026-04-24 23:12 | 30.47984 | -86.52912 | 99 ft | 33 kts | 300° |
| 2026-04-24 23:12 | 30.48103 | -86.53153 | 97 ft | 35 kts | 299° |
| 2026-04-24 23:12 | 30.48227 | -86.53400 | 98 ft | 35 kts | 301° |
| 2026-04-24 23:12 | 30.48347 | -86.53643 | 100 ft | 34 kts | 300° |
| 2026-04-24 23:13 | 30.48463 | -86.53884 | 101 ft | 34 kts | 300° |
| 2026-04-24 23:13 | 30.48583 | -86.54124 | 98 ft | 35 kts | 301° |
| 2026-04-24 23:13 | 30.48701 | -86.54365 | 98 ft | 34 kts | 298° |
| 2026-04-24 23:13 | 30.48815 | -86.54597 | 102 ft | 33 kts | 299° |
| 2026-04-24 23:14 | 30.48927 | -86.54824 | 104 ft | 30 kts | 300° |
| 2026-04-24 23:14 | 30.49023 | -86.54962 | 102 ft | 15 kts | 355° |
| 2026-04-24 23:14 | 30.49091 | -86.54921 | 99 ft | 11 kts | 28° |
| 2026-04-24 23:14 | 30.49162 | -86.54877 | 97 ft | 12 kts | 27° |
| 2026-04-24 23:15 | 30.49249 | -86.54847 | 95 ft | 13 kts | 10° |
| 2026-04-24 23:15 | 30.49311 | -86.54895 | 95 ft | 12 kts | 281° |
| 2026-04-24 23:15 | 30.49316 | -86.54986 | 95 ft | 11 kts | 278° |
| 2026-04-24 23:15 | 30.49352 | -86.55055 | 97 ft | 10 kts | 329° |
| 2026-04-24 23:16 | 30.49405 | -86.55059 | 97 ft | 3 kts | 2° |
| 2026-04-24 23:16 | 30.49427 | -86.55058 | 95 ft | 3 kts | 0° |
| 2026-04-24 23:16 | 30.49455 | -86.55058 | 98 ft | 4 kts | 1° |
| 2026-04-24 23:16 | 30.49465 | -86.55047 | 96 ft | 1 kts | 81° |
| 2026-04-24 23:17 | 30.49464 | -86.55031 | 95 ft | 4 kts | 92° |
| 2026-04-24 23:17 | 30.49463 | -86.55002 | 95 ft | 3 kts | 91° |
| 2026-04-24 23:17 | 30.49463 | -86.54999 | 95 ft | 0 kts | 91° |